Time;durP1;ratioP1;P1;durP2;ratioP2;P2;SDS_P1;SDS_P2;PMS_P1;PMS_P2;Temp;Humidity;BMP_temperature;BMP_pressure;BME280_temperature;BME280_humidity;BME280_pressure;Samples;Min_cycle;Max_cycle;Signal;HPM_P1;HPM_P2
2022/10/13 00:00:27;;;;;;;8.40;5.80;;;12.10;99.90;;;;;;4912448;29;20398;-85
2022/10/13 00:02:53;;;;;;;7.97;6.55;;;;;;;;;;4912580;29;20096;-85
2022/10/13 00:05:20;;;;;;;9.38;7.95;;;12.20;99.90;;;;;;4895618;29;20053;-85
2022/10/13 00:07:46;;;;;;;14.07;6.30;;;12.20;99.90;;;;;;4896334;29;20032;-85
2022/10/13 00:10:11;;;;;;;16.17;7.20;;;12.20;99.90;;;;;;4913226;29;20482;-85
2022/10/13 00:12:37;;;;;;;11.50;6.30;;;12.20;99.90;;;;;;4901299;29;20021;-85
2022/10/13 00:15:08;;;;;;;6.18;5.68;;;12.20;99.90;;;;;;4933628;29;20097;-85
2022/10/13 00:17:37;;;;;;;12.00;8.10;;;12.20;99.90;;;;;;4913922;29;20029;-85
2022/10/13 00:20:05;;;;;;;9.10;7.45;;;12.20;99.90;;;;;;4913957;29;20072;-85
2022/10/13 00:22:31;;;;;;;7.80;6.07;;;12.20;99.90;;;;;;4910615;29;20055;-85
2022/10/13 00:24:57;;;;;;;10.73;6.07;;;12.20;99.90;;;;;;4910765;29;20445;-85
2022/10/13 00:27:23;;;;;;;17.20;7.65;;;12.20;99.90;;;;;;4911756;29;20052;-85
2022/10/13 00:29:49;;;;;;;9.45;6.97;;;12.20;99.90;;;;;;4910735;29;20064;-85
2022/10/13 00:32:15;;;;;;;7.50;6.40;;;12.20;99.90;;;;;;4910614;29;20032;-85
2022/10/13 00:34:41;;;;;;;6.97;6.07;;;12.20;99.90;;;;;;4894874;29;20039;-85
2022/10/13 00:37:07;;;;;;;7.15;5.68;;;12.20;99.90;;;;;;4912990;29;20043;-85
2022/10/13 00:39:33;;;;;;;8.25;5.50;;;12.20;99.90;;;;;;4930347;29;20032;-85
2022/10/13 00:41:59;;;;;;;7.40;5.80;;;12.20;99.90;;;;;;4930326;29;20433;-85
2022/10/13 00:45:00;;;;;;;6.05;5.35;;;12.20;99.90;;;;;;4930071;29;20398;-85
2022/10/13 00:47:32;;;;;;;10.68;6.80;;;12.20;99.90;;;;;;4931081;29;20032;-85
2022/10/13 00:49:59;;;;;;;8.45;5.47;;;12.20;99.90;;;;;;4929314;29;20040;-85
2022/10/13 00:52:25;;;;;;;8.07;7.25;;;12.20;99.90;;;;;;4930175;29;20031;-85
2022/10/13 00:54:53;;;;;;;9.48;5.90;;;12.20;99.90;;;;;;4929723;29;20422;-85
2022/10/13 00:57:20;;;;;;;7.65;6.72;;;12.10;99.90;;;;;;4932159;29;20028;-85
2022/10/13 00:59:46;;;;;;;7.32;5.93;;;12.20;99.90;;;;;;4932060;29;20036;-85
2022/10/13 01:02:12;;;;;;;8.43;7.40;;;12.20;99.90;;;;;;4930136;29;20117;-85
2022/10/13 01:04:45;;;;;;;10.60;6.10;;;12.20;99.90;;;;;;4929023;29;20048;-85
2022/10/13 01:07:13;;;;;;;16.05;7.43;;;12.20;99.90;;;;;;4921251;29;20032;-85
2022/10/13 01:09:41;;;;;;;7.78;5.50;;;12.20;99.90;;;;;;4911376;29;20024;-85
2022/10/13 01:12:30;;;;;;;11.25;5.93;;;12.20;99.90;;;;;;4910142;29;20060;-85
2022/10/13 01:15:15;;;;;;;7.97;5.78;;;12.20;99.90;;;;;;4909953;29;20076;-85
2022/10/13 01:18:08;;;;;;;8.93;6.00;;;12.20;99.90;;;;;;4911501;29;20035;-85
2022/10/13 01:21:09;;;;;;;7.05;6.18;;;12.20;99.90;;;;;;4910314;29;20039;-85
2022/10/13 01:23:34;;;;;;;6.47;5.40;;;12.20;99.90;;;;;;4894408;29;20037;-85
2022/10/13 01:26:48;;;;;;;10.05;5.95;;;12.30;99.90;;;;;;4910288;29;20100;-85
2022/10/13 01:30:02;;;;;;;7.07;6.10;;;12.20;99.90;;;;;;4906776;29;20049;-85
2022/10/13 01:33:01;;;;;;;9.45;4.70;;;12.20;99.90;;;;;;4894326;29;20447;-85
2022/10/13 01:35:40;;;;;;;6.75;4.90;;;12.20;99.90;;;;;;4911254;29;20417;-85
2022/10/13 01:38:15;;;;;;;11.57;5.75;;;12.20;99.90;;;;;;4929018;29;20068;-85
2022/10/13 01:41:09;;;;;;;8.88;6.22;;;12.20;99.90;;;;;;4928845;29;20059;-85
2022/10/13 01:43:46;;;;;;;7.63;4.65;;;12.20;99.90;;;;;;4929188;29;20056;-85
2022/10/13 01:46:18;;;;;;;7.70;5.38;;;12.20;99.90;;;;;;4928960;29;20132;-85
2022/10/13 01:48:45;;;;;;;9.60;6.18;;;12.20;99.90;;;;;;4929873;29;20087;-85
2022/10/13 01:51:17;;;;;;;10.13;5.38;;;12.20;99.90;;;;;;4913315;29;20024;-85
2022/10/13 01:53:45;;;;;;;8.82;7.90;;;12.20;99.90;;;;;;4930082;29;20036;-85
2022/10/13 01:56:11;;;;;;;7.65;5.60;;;12.20;99.90;;;;;;4919233;29;20032;-85
2022/10/13 01:58:40;;;;;;;8.02;5.72;;;12.20;99.90;;;;;;4909967;29;20024;-85
2022/10/13 02:01:21;;;;;;;7.22;4.53;;;12.20;99.90;;;;;;4909986;29;20036;-85
2022/10/13 02:04:08;;;;;;;5.93;5.30;;;12.30;99.90;;;;;;4909850;29;20136;-85
2022/10/13 02:06:49;;;;;;;7.90;6.20;;;12.20;99.90;;;;;;4910543;29;20110;-85
2022/10/13 02:09:26;;;;;;;8.60;5.20;;;12.20;99.90;;;;;;4910747;29;20065;-84
2022/10/13 02:12:07;;;;;;;9.23;4.97;;;12.20;99.90;;;;;;4910243;29;20076;-85
2022/10/13 02:14:37;;;;;;;6.90;6.20;;;12.20;99.90;;;;;;4910100;29;20122;-85
2022/10/13 02:17:04;;;;;;;4.93;4.13;;;12.20;99.90;;;;;;4909755;29;20025;-85
2022/10/13 02:19:36;;;;;;;5.75;5.10;;;12.30;99.90;;;;;;4909621;29;20060;-85
2022/10/13 02:22:04;;;;;;;12.23;7.18;;;12.20;99.90;;;;;;4911248;29;20056;-85
2022/10/13 02:24:30;;;;;;;8.88;6.18;;;12.20;99.90;;;;;;4909192;29;20124;-85
2022/10/13 02:26:56;;;;;;;8.85;5.97;;;12.20;99.90;;;;;;4912776;29;20037;-85
2022/10/13 02:29:22;;;;;;;6.65;5.63;;;12.20;99.90;;;;;;4893842;29;20048;-85
2022/10/13 02:31:48;;;;;;;6.88;5.43;;;12.20;99.90;;;;;;4909403;29;20029;-85
2022/10/13 02:34:14;;;;;;;7.30;5.32;;;12.20;99.90;;;;;;4910822;29;20060;-85
2022/10/13 02:36:40;;;;;;;5.13;4.63;;;12.20;99.90;;;;;;4912517;29;20450;-86
2022/10/13 02:39:08;;;;;;;8.20;6.07;;;12.20;99.90;;;;;;4923266;29;20020;-85
2022/10/13 02:41:33;;;;;;;6.63;5.43;;;12.20;99.90;;;;;;4900147;29;20040;-85
2022/10/13 02:43:59;;;;;;;5.68;4.78;;;12.20;99.90;;;;;;4931890;29;20067;-84
2022/10/13 02:46:34;;;;;;;6.57;5.38;;;12.20;99.90;;;;;;4918182;29;20489;-85
2022/10/13 02:49:00;;;;;;;12.25;6.93;;;12.20;99.90;;;;;;4931954;29;20051;-85
2022/10/13 02:51:27;;;;;;;8.77;5.45;;;12.20;99.90;;;;;;4932191;29;20196;-85
2022/10/13 02:53:53;;;;;;;5.68;5.18;;;12.20;99.90;;;;;;4931705;29;20560;-86
2022/10/13 02:56:19;;;;;;;10.50;5.28;;;12.20;99.90;;;;;;4900310;29;20036;-85
2022/10/13 02:58:45;;;;;;;10.77;7.85;;;12.20;99.90;;;;;;4916110;29;20151;-85
2022/10/13 03:01:13;;;;;;;6.95;5.55;;;12.20;99.90;;;;;;4931703;29;20036;-85
2022/10/13 03:03:39;;;;;;;6.03;5.43;;;12.20;99.90;;;;;;4931331;29;20055;-85
2022/10/13 03:06:06;;;;;;;6.22;5.20;;;12.20;99.90;;;;;;4931593;29;20075;-86
2022/10/13 03:08:33;;;;;;;9.32;5.70;;;12.20;99.90;;;;;;4931358;29;20133;-85
2022/10/13 03:11:00;;;;;;;7.18;5.88;;;12.20;99.90;;;;;;4915534;29;20494;-85
2022/10/13 03:13:26;;;;;;;12.55;6.28;;;12.20;99.90;;;;;;4931637;29;20371;-85
2022/10/13 03:15:52;;;;;;;9.73;6.75;;;12.20;99.90;;;;;;4931374;29;20100;-85
2022/10/13 03:18:18;;;;;;;8.45;6.28;;;12.20;99.90;;;;;;4931276;29;20032;-85
2022/10/13 03:20:44;;;;;;;7.72;4.85;;;12.20;99.90;;;;;;4919164;29;20063;-85
2022/10/13 03:23:09;;;;;;;5.65;5.07;;;12.20;99.90;;;;;;4936974;29;20397;-85
2022/10/13 03:25:36;;;;;;;10.85;5.65;;;12.20;99.90;;;;;;4937030;29;20091;-85
2022/10/13 03:28:02;;;;;;;5.45;4.95;;;12.20;99.90;;;;;;4921784;29;20095;-85
2022/10/13 03:30:28;;;;;;;10.48;6.07;;;12.20;99.90;;;;;;4937200;29;20461;-84
2022/10/13 03:32:54;;;;;;;8.65;5.18;;;12.20;99.90;;;;;;4920276;29;20021;-85
2022/10/13 03:35:19;;;;;;;7.13;4.95;;;12.20;99.90;;;;;;4934567;29;20048;-85
2022/10/13 03:37:46;;;;;;;6.53;5.85;;;12.20;99.90;;;;;;4930603;29;20055;-84
2022/10/13 03:40:12;;;;;;;8.80;5.53;;;12.20;99.90;;;;;;4932181;29;20394;-84
2022/10/13 03:42:38;;;;;;;8.52;5.15;;;12.20;99.90;;;;;;4930583;29;20036;-84
2022/10/13 03:45:05;;;;;;;8.85;5.85;;;12.20;99.90;;;;;;4914865;29;20040;-84
2022/10/13 03:47:35;;;;;;;7.38;5.28;;;12.20;99.90;;;;;;4932197;29;20020;-84
2022/10/13 03:50:02;;;;;;;5.18;4.68;;;12.20;99.90;;;;;;4933415;29;20060;-84
2022/10/13 03:52:28;;;;;;;6.18;5.43;;;12.20;99.90;;;;;;4927994;29;20029;-85
2022/10/13 03:54:54;;;;;;;7.45;6.57;;;12.20;99.90;;;;;;4924686;29;20032;-85
2022/10/13 03:57:20;;;;;;;6.97;6.32;;;12.20;99.90;;;;;;4915736;29;20459;-85
2022/10/13 03:59:46;;;;;;;7.10;6.43;;;12.20;99.90;;;;;;4931104;29;20359;-84
2022/10/13 04:02:11;;;;;;;6.53;5.93;;;12.20;99.90;;;;;;4930582;29;20036;-84
2022/10/13 04:04:38;;;;;;;6.13;5.35;;;12.20;99.90;;;;;;4914664;29;20048;-85
2022/10/13 04:07:06;;;;;;;8.52;6.32;;;12.20;99.90;;;;;;4930739;29;20032;-85
2022/10/13 04:09:32;;;;;;;8.40;6.43;;;12.20;99.90;;;;;;4915073;29;20045;-84
2022/10/13 04:11:58;;;;;;;8.40;5.75;;;12.20;99.90;;;;;;4932649;29;20064;-84
2022/10/13 04:14:24;;;;;;;8.52;5.80;;;12.20;99.90;;;;;;4930541;29;20016;-84
2022/10/13 04:16:50;;;;;;;9.23;6.63;;;12.20;99.90;;;;;;4914477;29;20028;-85
2022/10/13 04:19:16;;;;;;;8.82;6.68;;;12.20;99.90;;;;;;4931903;29;20083;-84
2022/10/13 04:21:42;;;;;;;9.65;6.93;;;12.20;99.90;;;;;;4930204;29;20024;-84
2022/10/13 04:24:11;;;;;;;14.55;7.97;;;12.20;99.90;;;;;;4930377;29;20032;-84
2022/10/13 04:26:38;;;;;;;12.80;5.95;;;12.20;99.90;;;;;;4931572;29;20040;-84
2022/10/13 04:29:08;;;;;;;9.25;6.20;;;12.20;99.90;;;;;;4899240;29;20040;-85
2022/10/13 04:31:34;;;;;;;12.85;7.15;;;12.20;99.90;;;;;;4931161;29;20056;-85
2022/10/13 04:34:00;;;;;;;8.80;6.78;;;12.20;99.90;;;;;;4930012;29;20031;-84
2022/10/13 04:36:26;;;;;;;8.35;7.47;;;12.20;99.90;;;;;;4914120;29;20040;-85
2022/10/13 04:38:53;;;;;;;12.55;8.73;;;12.20;99.90;;;;;;4931054;29;20043;-84
2022/10/13 04:41:19;;;;;;;13.32;7.05;;;12.10;99.90;;;;;;4929996;29;20024;-84
2022/10/13 04:43:52;;;;;;;14.10;8.63;;;12.20;99.90;;;;;;4930647;29;20048;-85
2022/10/13 04:46:24;;;;;;;8.32;7.28;;;12.20;99.90;;;;;;4913644;29;20103;-84
2022/10/13 04:48:51;;;;;;;11.52;6.93;;;12.20;99.90;;;;;;4931169;29;20036;-85
2022/10/13 04:51:23;;;;;;;10.82;7.55;;;12.20;99.90;;;;;;4930643;29;20442;-84
2022/10/13 04:53:53;;;;;;;7.97;6.78;;;12.10;99.90;;;;;;4930216;29;20032;-85
2022/10/13 04:56:19;;;;;;;7.80;7.03;;;12.20;99.90;;;;;;4931802;29;20031;-85
2022/10/13 04:58:46;;;;;;;13.60;7.65;;;12.10;99.90;;;;;;4931883;29;20039;-85
2022/10/13 05:01:18;;;;;;;11.23;7.13;;;12.20;99.90;;;;;;4924457;29;20040;-85
2022/10/13 05:03:54;;;;;;;8.82;7.75;;;12.10;99.90;;;;;;4925383;29;20040;-86
2022/10/13 05:06:23;;;;;;;9.07;6.95;;;12.10;99.90;;;;;;4919727;29;20418;-86
2022/10/13 05:08:55;;;;;;;8.20;7.28;;;12.20;99.90;;;;;;4918859;29;20061;-86
2022/10/13 05:11:25;;;;;;;15.93;6.57;;;12.20;99.90;;;;;;4925947;29;20035;-86
2022/10/13 05:13:51;;;;;;;14.80;6.90;;;12.20;99.90;;;;;;4919272;29;20035;-86
2022/10/13 05:16:19;;;;;;;13.60;7.15;;;12.10;99.90;;;;;;4923921;29;20033;-86
2022/10/13 05:18:46;;;;;;;9.88;8.05;;;12.10;99.90;;;;;;4926673;29;20032;-85
2022/10/13 05:21:18;;;;;;;10.88;8.07;;;12.10;99.90;;;;;;4926867;29;20028;-86
2022/10/13 05:23:47;;;;;;;8.05;6.82;;;12.10;99.90;;;;;;4912613;29;20035;-86
2022/10/13 05:26:15;;;;;;;12.15;7.47;;;12.00;99.90;;;;;;4911473;29;20059;-86
2022/10/13 05:28:42;;;;;;;13.65;7.50;;;12.20;99.90;;;;;;4915572;29;20489;-86
2022/10/13 05:31:17;;;;;;;6.78;5.85;;;12.10;99.90;;;;;;4917464;29;20069;-87
2022/10/13 05:33:43;;;;;;;13.98;11.50;;;12.20;99.90;;;;;;4916173;29;20024;-85
2022/10/13 05:36:15;;;;;;;10.48;9.02;;;12.20;99.90;;;;;;4927816;29;20049;-86
2022/10/13 05:38:42;;;;;;;11.10;8.82;;;12.20;99.90;;;;;;4927604;29;20136;-86
2022/10/13 05:41:11;;;;;;;12.50;8.50;;;12.20;99.90;;;;;;4927830;29;20051;-86
2022/10/13 05:43:39;;;;;;;13.75;9.13;;;12.10;99.90;;;;;;4929045;29;20028;-86
2022/10/13 05:46:05;;;;;;;11.38;8.75;;;12.10;99.90;;;;;;4928978;29;20060;-86
2022/10/13 05:48:36;;;;;;;10.02;8.80;;;12.20;99.90;;;;;;4912559;29;20449;-85
2022/10/13 05:51:06;;;;;;;23.45;9.88;;;12.40;99.90;;;;;;4911957;29;20056;-85
2022/10/13 05:53:39;;;;;;;16.95;10.02;;;12.10;99.90;;;;;;4920924;29;20084;-85
2022/10/13 05:56:13;;;;;;;16.10;8.52;;;12.20;99.90;;;;;;4924106;29;20029;-86
2022/10/13 05:58:43;;;;;;;14.48;11.52;;;12.10;99.90;;;;;;4924774;29;20028;-85
2022/10/13 06:01:11;;;;;;;;;;;12.10;99.90;;;;;;4928939;29;20092;-85
2022/10/13 06:03:38;;;;;;;9.52;8.40;;;12.10;99.90;;;;;;4928549;29;20289;-85
2022/10/13 06:06:05;;;;;;;29.40;8.50;;;12.20;99.90;;;;;;4893064;29;20060;-85
2022/10/13 06:08:31;;;;;;;15.60;9.02;;;12.10;99.90;;;;;;4911863;29;20398;-85
2022/10/13 06:10:57;;;;;;;17.95;9.85;;;;;;;;;;4930842;29;20028;-85
2022/10/13 06:13:26;;;;;;;10.85;9.50;;;12.20;99.90;;;;;;4932533;29;20020;-86
2022/10/13 06:15:51;;;;;;;15.45;8.98;;;12.10;99.90;;;;;;4932794;29;20032;-85
2022/10/13 06:18:18;;;;;;;16.05;9.77;;;12.20;99.90;;;;;;4932500;29;20059;-85
2022/10/13 06:20:44;;;;;;;9.52;8.48;;;12.20;99.90;;;;;;4932594;29;20028;-85
2022/10/13 06:23:14;;;;;;;15.52;9.27;;;12.10;99.90;;;;;;4914519;29;20052;-84
2022/10/13 06:25:50;;;;;;;13.00;8.38;;;12.10;99.90;;;;;;4931337;29;20024;-85
2022/10/13 06:28:20;;;;;;;13.68;8.57;;;12.20;99.90;;;;;;4915367;29;20036;-84
2022/10/13 06:30:52;;;;;;;15.23;10.40;;;12.20;99.90;;;;;;4931203;29;20091;-85
2022/10/13 06:33:20;;;;;;;12.90;8.40;;;12.10;99.90;;;;;;4932450;29;20083;-84
2022/10/13 06:35:46;;;;;;;10.60;8.35;;;12.20;99.90;;;;;;4931190;29;20090;-85
2022/10/13 06:38:12;;;;;;;8.00;7.20;;;12.20;99.90;;;;;;4930649;29;20051;-84
2022/10/13 06:40:41;;;;;;;20.52;9.23;;;12.10;99.90;;;;;;4932320;29;20509;-85
2022/10/13 06:43:06;;;;;;;7.82;6.97;;;12.20;99.90;;;;;;4932087;29;20079;-85
2022/10/13 06:45:40;;;;;;;15.50;9.32;;;12.10;99.90;;;;;;4931891;29;20028;-85
2022/10/13 06:48:06;;;;;;;12.35;9.82;;;12.20;99.90;;;;;;4930948;29;20036;-85
2022/10/13 06:50:32;;;;;;;9.65;8.75;;;12.20;99.90;;;;;;4931956;29;20051;-85
2022/10/13 06:52:58;;;;;;;11.38;7.30;;;12.20;99.90;;;;;;4946329;29;20063;-85
2022/10/13 06:55:24;;;;;;;9.85;7.68;;;12.20;99.90;;;;;;4914843;29;20478;-84
2022/10/13 06:57:50;;;;;;;12.95;9.43;;;12.20;99.90;;;;;;4932024;29;20031;-85
2022/10/13 07:00:16;;;;;;;14.30;8.07;;;12.20;99.90;;;;;;4898957;29;20062;-85
2022/10/13 07:02:43;;;;;;;12.82;9.20;;;;;;;;;;4931799;29;20032;-85
2022/10/13 07:05:08;;;;;;;11.85;8.57;;;12.20;99.90;;;;;;4931549;29;20070;-85
2022/10/13 07:07:34;;;;;;;8.48;7.57;;;12.10;99.90;;;;;;4930468;29;20028;-85
2022/10/13 07:10:00;;;;;;;14.45;8.15;;;12.20;99.90;;;;;;4930344;29;20041;-84
2022/10/13 07:12:26;;;;;;;10.35;8.52;;;12.20;99.90;;;;;;4931673;29;20040;-84
2022/10/13 07:14:51;;;;;;;19.65;10.30;;;12.20;99.90;;;;;;4923484;29;20035;-85
2022/10/13 07:17:17;;;;;;;16.15;9.52;;;12.20;99.90;;;;;;4923952;29;20047;-85
2022/10/13 07:19:46;;;;;;;9.65;8.10;;;;;;;;;;4930334;29;20446;-85
2022/10/13 07:22:12;;;;;;;28.57;10.47;;;;;;;;;;4929818;29;20135;-85
2022/10/13 07:24:38;;;;;;;9.63;8.73;;;12.20;99.90;;;;;;4931364;29;20295;-84
2022/10/13 07:27:05;;;;;;;12.05;7.57;;;12.20;99.90;;;;;;4914445;29;20036;-84
2022/10/13 07:29:30;;;;;;;9.65;8.25;;;12.20;99.90;;;;;;4931310;29;20040;-85
2022/10/13 07:31:56;;;;;;;9.00;8.07;;;12.30;99.90;;;;;;4919315;29;20180;-85
2022/10/13 07:34:22;;;;;;;12.80;8.10;;;12.30;99.90;;;;;;4911279;29;20025;-86
2022/10/13 07:36:48;;;;;;;15.00;9.20;;;12.30;99.90;;;;;;4912246;29;20028;-85
2022/10/13 07:39:14;;;;;;;10.73;8.73;;;12.30;99.90;;;;;;4912442;29;20065;-85
2022/10/13 07:41:40;;;;;;;7.60;6.95;;;;;;;;;;4912242;29;20088;-85
2022/10/13 07:44:06;;;;;;;13.95;7.97;;;12.30;99.90;;;;;;4910836;29;20072;-85
2022/10/13 07:46:32;;;;;;;12.82;8.55;;;12.30;99.90;;;;;;4912006;29;20037;-85
2022/10/13 07:48:57;;;;;;;11.75;6.35;;;12.40;99.90;;;;;;4894797;29;20043;-85
2022/10/13 07:51:23;;;;;;;13.65;7.57;;;12.40;99.90;;;;;;4912063;29;20056;-85
2022/10/13 07:53:49;;;;;;;20.20;9.98;;;12.50;99.90;;;;;;4910827;29;20025;-84
2022/10/13 07:56:15;;;;;;;9.57;8.68;;;12.50;99.90;;;;;;4910690;29;20035;-85
2022/10/13 07:58:44;;;;;;;10.57;8.13;;;12.50;99.90;;;;;;4910895;29;20402;-85
2022/10/13 08:01:10;;;;;;;10.80;7.40;;;12.50;99.90;;;;;;4910738;29;20040;-85
2022/10/13 08:03:40;;;;;;;11.15;8.07;;;12.50;99.90;;;;;;4918736;29;20119;-85
2022/10/13 08:06:09;;;;;;;17.38;7.47;;;12.50;99.90;;;;;;4929208;29;20039;-85
2022/10/13 08:08:36;;;;;;;14.43;7.57;;;12.50;99.90;;;;;;4930914;29;20040;-85
2022/10/13 08:11:04;;;;;;;9.82;7.57;;;12.50;99.90;;;;;;4929244;29;20024;-85
2022/10/13 08:13:30;;;;;;;11.60;8.05;;;12.50;99.90;;;;;;4930626;29;20042;-85
2022/10/13 08:16:00;;;;;;;11.45;7.85;;;12.50;99.90;;;;;;4930534;29;20044;-85
2022/10/13 08:18:27;;;;;;;14.68;8.35;;;12.50;99.90;;;;;;4921028;29;20112;-85
2022/10/13 08:20:53;;;;;;;11.30;9.10;;;12.50;99.90;;;;;;4911466;29;20032;-84
2022/10/13 08:23:19;;;;;;;12.93;8.00;;;;;;;;;;4910337;29;20037;-85
2022/10/13 08:25:49;;;;;;;8.80;7.55;;;12.60;99.90;;;;;;4911324;29;20017;-85
2022/10/13 08:28:18;;;;;;;12.68;7.05;;;12.60;99.90;;;;;;4909847;29;20028;-85
2022/10/13 08:30:44;;;;;;;13.47;8.30;;;;;;;;;;4911237;29;20036;-85
2022/10/13 08:33:10;;;;;;;9.07;7.35;;;;;;;;;;4910526;29;20277;-85
2022/10/13 08:35:36;;;;;;;8.27;7.15;;;12.60;99.90;;;;;;4910142;29;20048;-85
2022/10/13 08:38:02;;;;;;;13.43;7.60;;;;;;;;;;4911279;29;20020;-84
2022/10/13 08:40:29;;;;;;;8.90;6.03;;;12.70;99.90;;;;;;4925777;29;20029;-85
2022/10/13 08:42:55;;;;;;;9.15;6.30;;;;;;;;;;4911039;29;20028;-85
2022/10/13 08:45:25;;;;;;;9.13;6.47;;;12.70;99.90;;;;;;4912764;29;20035;-84
2022/10/13 08:47:53;;;;;;;13.20;7.65;;;12.70;99.90;;;;;;4927668;29;20039;-85
2022/10/13 08:50:25;;;;;;;11.85;7.82;;;12.70;99.90;;;;;;4929176;29;20028;-85
2022/10/13 08:53:00;;;;;;;12.13;8.35;;;12.70;99.90;;;;;;4930014;29;20032;-85
2022/10/13 08:55:39;;;;;;;9.85;8.13;;;12.70;99.90;;;;;;4929906;29;20032;-85
2022/10/13 08:58:16;;;;;;;11.73;6.15;;;12.80;99.90;;;;;;4928898;29;20107;-85
2022/10/13 09:00:42;;;;;;;12.52;8.18;;;12.80;99.90;;;;;;4929964;29;20038;-85
2022/10/13 09:03:41;;;;;;;26.17;8.32;;;13.00;99.90;;;;;;4929627;29;20032;-85
2022/10/13 09:06:26;;;;;;;7.97;7.10;;;12.70;99.90;;;;;;4910614;29;20039;-85
2022/10/13 09:08:55;;;;;;;11.82;7.78;;;12.80;99.90;;;;;;4909512;29;20064;-85
2022/10/13 09:11:22;;;;;;;11.30;7.90;;;12.80;99.90;;;;;;4909364;29;20390;-84
2022/10/13 09:13:52;;;;;;;9.75;7.40;;;12.80;99.90;;;;;;4910843;29;20037;-85
2022/10/13 09:16:25;;;;;;;;;;;12.80;99.90;;;;;;4911143;29;20064;-85
2022/10/13 09:18:51;;;;;;;15.77;7.70;;;;;;;;;;4915283;29;19982;-85
2022/10/13 09:21:23;;;;;;;13.32;8.07;;;12.80;99.90;;;;;;4928138;29;20028;-85
2022/10/13 09:23:52;;;;;;;11.10;7.25;;;12.80;99.90;;;;;;4912948;29;20069;-85
2022/10/13 09:26:22;;;;;;;12.15;7.90;;;12.80;99.90;;;;;;4929485;29;20037;-85
2022/10/13 09:28:48;;;;;;;10.10;7.32;;;12.90;99.90;;;;;;4943683;29;20092;-85
2022/10/13 09:31:27;;;;;;;8.98;6.93;;;12.80;99.90;;;;;;4944171;29;20043;-84
2022/10/13 09:33:58;;;;;;;8.93;7.38;;;12.90;99.90;;;;;;4921977;29;20046;-85
2022/10/13 09:36:24;;;;;;;10.10;7.78;;;;;;;;;;4910259;29;20029;-86
2022/10/13 09:39:11;;;;;;;10.00;7.32;;;12.90;99.90;;;;;;4910265;29;20037;-85
2022/10/13 09:41:39;;;;;;;8.52;6.40;;;12.90;99.90;;;;;;4910457;29;20042;-85
2022/10/13 09:44:27;;;;;;;20.58;9.82;;;12.90;99.90;;;;;;4910074;29;20470;-85
2022/10/13 09:46:56;;;;;;;13.70;8.45;;;12.90;99.90;;;;;;4928935;29;20040;-85
2022/10/13 09:49:28;;;;;;;9.60;6.20;;;12.90;99.90;;;;;;4914392;29;20061;-85
2022/10/13 09:52:01;;;;;;;9.35;6.63;;;12.90;99.90;;;;;;4929963;29;20056;-85
2022/10/13 09:54:43;;;;;;;7.55;5.82;;;12.90;99.90;;;;;;4931900;29;20079;-85
2022/10/13 09:57:09;;;;;;;8.45;6.15;;;;;;;;;;4947659;29;20032;-86
2022/10/13 10:00:05;;;;;;;10.13;5.43;;;13.00;99.90;;;;;;4933172;29;20043;-85
2022/10/13 10:02:55;;;;;;;8.85;5.63;;;13.00;99.90;;;;;;4925052;29;20509;-85
2022/10/13 10:05:30;;;;;;;9.52;5.43;;;13.00;99.90;;;;;;4926443;29;20045;-85
2022/10/13 10:08:05;;;;;;;14.38;6.10;;;13.00;99.90;;;;;;4928567;29;20036;-85
2022/10/13 10:10:38;;;;;;;8.30;6.15;;;13.00;99.90;;;;;;4913744;29;20032;-85
2022/10/13 10:13:11;;;;;;;7.38;5.30;;;13.00;99.90;;;;;;4912678;29;20037;-85
2022/10/13 10:15:48;;;;;;;9.23;6.20;;;13.00;99.90;;;;;;4912558;29;20048;-86
2022/10/13 10:18:35;;;;;;;11.80;6.65;;;13.00;99.90;;;;;;4912519;29;20024;-85
2022/10/13 10:21:05;;;;;;;13.30;5.82;;;13.00;99.90;;;;;;4926427;29;20040;-85
2022/10/13 10:23:45;;;;;;;10.15;6.13;;;13.00;99.90;;;;;;4932627;29;20032;-85
2022/10/13 10:26:16;;;;;;;12.03;5.73;;;13.00;99.90;;;;;;4932656;29;20111;-86
2022/10/13 10:29:19;;;;;;;6.45;5.70;;;13.00;99.90;;;;;;4932345;29;20080;-85
2022/10/13 10:31:56;;;;;;;9.25;6.68;;;13.00;99.90;;;;;;4932589;29;20028;-85
2022/10/13 10:34:27;;;;;;;7.32;5.72;;;13.00;99.90;;;;;;4929755;29;20063;-85
2022/10/13 10:37:05;;;;;;;6.50;5.63;;;13.00;99.90;;;;;;4913334;29;20084;-85
2022/10/13 10:39:41;;;;;;;10.23;6.30;;;13.00;99.90;;;;;;4913391;29;20032;-85
2022/10/13 10:42:17;;;;;;;7.22;4.88;;;13.00;99.90;;;;;;4913026;29;20180;-85
2022/10/13 10:44:47;;;;;;;7.43;5.75;;;13.00;99.90;;;;;;4925598;29;20382;-85
2022/10/13 10:47:42;;;;;;;6.30;5.43;;;13.00;99.90;;;;;;4930780;29;20036;-85
2022/10/13 10:50:14;;;;;;;8.05;5.15;;;13.00;99.90;;;;;;4929115;29;20048;-85
2022/10/13 10:52:41;;;;;;;11.18;6.53;;;;;;;;;;4931053;29;20060;-85
2022/10/13 10:55:16;;;;;;;7.53;6.55;;;13.00;99.90;;;;;;4946350;29;20513;-85
2022/10/13 10:57:48;;;;;;;12.45;6.85;;;13.00;99.90;;;;;;4930320;29;20036;-85
2022/10/13 11:00:18;;;;;;;9.70;6.93;;;13.00;99.90;;;;;;4946514;29;20067;-85
2022/10/13 11:03:23;;;;;;;14.80;7.40;;;13.00;99.90;;;;;;4930214;29;20058;-85
2022/10/13 11:06:22;;;;;;;9.10;6.22;;;13.00;99.90;;;;;;4931377;29;20064;-85
2022/10/13 11:08:48;;;;;;;9.40;7.90;;;13.00;99.90;;;;;;4931723;29;20036;-85
2022/10/13 11:11:22;;;;;;;8.75;5.68;;;13.00;99.90;;;;;;4931617;29;20416;-85
2022/10/13 11:13:53;;;;;;;8.85;5.40;;;13.00;99.90;;;;;;4946275;29;20057;-84
2022/10/13 11:16:27;;;;;;;6.63;5.40;;;13.10;99.90;;;;;;4946161;29;20039;-86
2022/10/13 11:18:58;;;;;;;5.40;4.88;;;13.10;99.90;;;;;;4930000;29;20067;-86
2022/10/13 11:21:52;;;;;;;12.05;5.63;;;13.10;99.90;;;;;;4930401;29;20087;-85
2022/10/13 11:24:33;;;;;;;7.28;5.18;;;13.10;99.90;;;;;;4930043;29;20051;-85
2022/10/13 11:27:14;;;;;;;9.05;5.80;;;13.10;99.90;;;;;;4914043;29;20040;-85
2022/10/13 11:29:43;;;;;;;6.25;5.47;;;13.10;99.90;;;;;;4929942;29;20061;-85
2022/10/13 11:32:29;;;;;;;8.77;5.15;;;13.00;99.90;;;;;;4931400;29;20024;-85
2022/10/13 11:35:16;;;;;;;9.27;5.20;;;13.10;99.90;;;;;;4930620;29;20032;-85
2022/10/13 11:38:03;;;;;;;13.07;6.32;;;13.10;99.90;;;;;;4930071;29;20115;-85
2022/10/13 11:40:44;;;;;;;11.98;6.57;;;13.10;99.90;;;;;;4945772;29;20040;-85
2022/10/13 11:43:22;;;;;;;5.80;5.18;;;13.10;99.90;;;;;;4930056;29;20115;-85
2022/10/13 11:46:23;;;;;;;7.13;5.43;;;13.10;99.90;;;;;;4945864;29;20059;-85
2022/10/13 11:49:36;;;;;;;10.18;6.22;;;13.10;99.90;;;;;;4897424;29;20072;-85
2022/10/13 11:52:11;;;;;;;6.78;5.93;;;13.10;99.90;;;;;;4882830;29;20541;-85
2022/10/13 11:55:10;;;;;;;8.48;5.95;;;13.10;99.90;;;;;;4929551;29;20032;-85
2022/10/13 11:57:36;;;;;;;9.70;6.43;;;13.10;99.90;;;;;;4930534;29;20028;-85
2022/10/13 12:00:03;;;;;;;8.52;5.63;;;13.10;99.90;;;;;;4929442;29;20405;-85
2022/10/13 12:02:47;;;;;;;11.95;5.75;;;13.10;99.90;;;;;;4926989;29;20046;-85
2022/10/13 12:05:27;;;;;;;6.43;5.82;;;13.10;99.90;;;;;;4911634;29;20040;-86
2022/10/13 12:08:03;;;;;;;5.47;4.97;;;13.10;99.90;;;;;;4925633;29;20036;-85
2022/10/13 12:10:32;;;;;;;6.85;5.65;;;13.10;99.90;;;;;;4911617;29;20297;-84
2022/10/13 12:12:59;;;;;;;7.57;5.45;;;13.10;99.90;;;;;;4911947;29;20378;-85
2022/10/13 12:15:43;;;;;;;7.80;7.00;;;13.10;99.90;;;;;;4911626;29;20024;-85
2022/10/13 12:18:41;;;;;;;8.15;6.43;;;13.10;99.90;;;;;;4920007;29;20044;-85
2022/10/13 12:21:10;;;;;;;6.25;5.68;;;13.10;99.90;;;;;;4897863;29;20044;-85
2022/10/13 12:23:37;;;;;;;5.40;4.90;;;13.10;99.90;;;;;;4930570;29;20060;-85
2022/10/13 12:26:03;;;;;;;6.32;5.50;;;13.20;99.90;;;;;;4930345;29;20024;-85
2022/10/13 12:28:56;;;;;;;10.23;6.75;;;13.20;99.90;;;;;;5103594;28;20420;-85
2022/10/13 12:31:28;;;;;;;9.10;6.30;;;13.20;99.90;;;;;;5102216;28;20028;-87
2022/10/13 12:33:59;;;;;;;15.75;14.13;;;13.20;99.90;;;;;;5103256;28;20032;-87
2022/10/13 12:36:31;;;;;;;14.52;11.18;;;13.20;99.90;;;;;;5083412;28;20039;-85
2022/10/13 12:39:09;;;;;;;19.40;13.23;;;13.20;99.90;;;;;;5083213;28;20037;-86
2022/10/13 12:41:39;;;;;;;13.65;12.15;;;13.20;99.90;;;;;;5081946;28;20033;-84
2022/10/13 12:44:06;;;;;;;;;;;13.20;99.90;;;;;;5082164;28;20036;-83
2022/10/13 12:46:46;;;;;;;12.75;10.68;;;13.30;99.90;;;;;;5081773;28;19912;-85
2022/10/13 12:49:24;;;;;;;8.97;8.10;;;13.30;99.90;;;;;;5092724;28;20011;-85
2022/10/13 12:52:07;;;;;;;13.32;9.93;;;13.30;99.90;;;;;;5123248;28;20301;-87
2022/10/13 12:54:38;;;;;;;16.40;10.95;;;13.30;99.90;;;;;;5123360;28;20016;-87
2022/10/13 12:57:16;;;;;;;9.35;8.40;;;13.30;99.90;;;;;;5122299;28;20031;-87
2022/10/13 12:59:43;;;;;;;18.52;10.00;;;13.30;99.90;;;;;;5113904;28;20074;-84
2022/10/13 13:02:26;;;;;;;10.98;9.15;;;13.40;99.90;;;;;;5086758;28;20035;-87
2022/10/13 13:04:52;;;;;;;11.43;8.43;;;13.30;99.90;;;;;;5076566;28;20033;-86
2022/10/13 13:07:21;;;;;;;12.43;7.93;;;13.40;99.90;;;;;;5081329;28;20051;-87
2022/10/13 13:10:00;;;;;;;10.85;8.60;;;13.40;99.90;;;;;;5081435;28;20028;-87